sensor_id;sensor_type;location;lat;lon;timestamp;pressure;altitude;pressure_sealevel;temperature;humidity
37486;BME280;23341;50.296;18.960;2022-09-09T00:03:46;150155.78;;;16.05;100.00
37486;BME280;23341;50.296;18.960;2022-09-09T00:09:01;150150.63;;;16.03;100.00
37486;BME280;23341;50.296;18.960;2022-09-09T00:14:14;150144.16;;;16.00;100.00
37486;BME280;23341;50.296;18.960;2022-09-09T00:19:25;150119.59;;;15.91;100.00
37486;BME280;23341;50.296;18.960;2022-09-09T00:24:36;150115.72;;;15.89;100.00
37486;BME280;23341;50.296;18.960;2022-09-09T00:29:49;150106.66;;;15.86;100.00
37486;BME280;23341;50.296;18.960;2022-09-09T00:35:01;150078.19;;;15.74;100.00
37486;BME280;23341;50.296;18.960;2022-09-09T00:40:22;150098.91;;;15.83;100.00
37486;BME280;23341;50.296;18.960;2022-09-09T00:45:59;150057.50;;;15.66;100.00
37486;BME280;23341;50.296;18.960;2022-09-09T00:51:15;150076.91;;;15.74;100.00
37486;BME280;23341;50.296;18.960;2022-09-09T00:56:25;150058.78;;;15.67;100.00
37486;BME280;23341;50.296;18.960;2022-09-09T01:01:33;150057.50;;;15.66;100.00
37486;BME280;23341;50.296;18.960;2022-09-09T01:06:39;150036.75;;;15.58;100.00
37486;BME280;23341;50.296;18.960;2022-09-09T01:11:55;149977.31;;;15.35;100.00
37486;BME280;23341;50.296;18.960;2022-09-09T01:17:22;150016.06;;;15.50;100.00
37486;BME280;23341;50.296;18.960;2022-09-09T01:22:49;150029.03;;;15.55;100.00
37486;BME280;23341;50.296;18.960;2022-09-09T01:28:02;150036.75;;;15.58;100.00
37486;BME280;23341;50.296;18.960;2022-09-09T01:33:13;150034.19;;;15.57;100.00
37486;BME280;23341;50.296;18.960;2022-09-09T01:38:18;150076.91;;;15.74;100.00
37486;BME280;23341;50.296;18.960;2022-09-09T01:43:27;150078.19;;;15.74;100.00
37486;BME280;23341;50.296;18.960;2022-09-09T01:48:33;150064.00;;;15.69;100.00
37486;BME280;23341;50.296;18.960;2022-09-09T01:53:45;150056.22;;;15.66;100.00
37486;BME280;23341;50.296;18.960;2022-09-09T01:59:04;150038.06;;;15.59;100.00
37486;BME280;23341;50.296;18.960;2022-09-09T02:04:21;150018.69;;;15.51;100.00
37486;BME280;23341;50.296;18.960;2022-09-09T02:09:30;150018.69;;;15.51;100.00
37486;BME280;23341;50.296;18.960;2022-09-09T02:14:38;150057.50;;;15.66;100.00
37486;BME280;23341;50.296;18.960;2022-09-09T02:19:49;150016.06;;;15.50;100.00
37486;BME280;23341;50.296;18.960;2022-09-09T02:25:05;149992.81;;;15.41;100.00
37486;BME280;23341;50.296;18.960;2022-09-09T02:30:13;150008.34;;;15.47;100.00
37486;BME280;23341;50.296;18.960;2022-09-09T02:35:24;149946.28;;;15.22;100.00
37486;BME280;23341;50.296;18.960;2022-09-09T02:40:31;149925.59;;;15.14;100.00
37486;BME280;23341;50.296;18.960;2022-09-09T02:45:44;149903.63;;;15.06;100.00
37486;BME280;23341;50.296;18.960;2022-09-09T02:50:56;149894.59;;;15.02;100.00
37486;BME280;23341;50.296;18.960;2022-09-09T02:56:11;149882.94;;;14.97;100.00
37486;BME280;23341;50.296;18.960;2022-09-09T03:01:21;149849.34;;;14.84;100.00
37486;BME280;23341;50.296;18.960;2022-09-09T03:06:26;149814.47;;;14.70;100.00
37486;BME280;23341;50.296;18.960;2022-09-09T03:11:40;149814.47;;;14.70;100.00
37486;BME280;23341;50.296;18.960;2022-09-09T03:16:47;149792.50;;;14.62;100.00
37486;BME280;23341;50.296;18.960;2022-09-09T03:21:51;149783.47;;;14.58;100.00
37486;BME280;23341;50.296;18.960;2022-09-09T03:26:56;149792.50;;;14.62;100.00
37486;BME280;23341;50.296;18.960;2022-09-09T03:32:03;149786.03;;;14.59;100.00
37486;BME280;23341;50.296;18.960;2022-09-09T03:37:07;149744.63;;;14.43;100.00
37486;BME280;23341;50.296;18.960;2022-09-09T03:42:13;149778.31;;;14.56;100.00
37486;BME280;23341;50.296;18.960;2022-09-09T03:47:26;149770.56;;;14.53;100.00
37486;BME280;23341;50.296;18.960;2022-09-09T03:52:40;149743.34;;;14.42;100.00
37486;BME280;23341;50.296;18.960;2022-09-09T03:57:52;149722.69;;;14.34;100.00
37486;BME280;23341;50.296;18.960;2022-09-09T04:02:59;149729.16;;;14.37;100.00
37486;BME280;23341;50.296;18.960;2022-09-09T04:08:04;149739.50;;;14.41;100.00
37486;BME280;23341;50.296;18.960;2022-09-09T04:13:08;149703.34;;;14.26;100.00
37486;BME280;23341;50.296;18.960;2022-09-09T04:18:17;149689.09;;;14.21;100.00
37486;BME280;23341;50.296;18.960;2022-09-09T04:23:23;149676.19;;;14.16;100.00
37486;BME280;23341;50.296;18.960;2022-09-09T04:28:31;149687.81;;;14.20;100.00
37486;BME280;23341;50.296;18.960;2022-09-09T04:33:39;149716.25;;;14.32;100.00
37486;BME280;23341;50.296;18.960;2022-09-09T04:38:45;149696.88;;;14.24;100.00
37486;BME280;23341;50.296;18.960;2022-09-09T04:43:52;149673.63;;;14.15;100.00
37486;BME280;23341;50.296;18.960;2022-09-09T04:48:59;149682.69;;;14.18;100.00
37486;BME280;23341;50.296;18.960;2022-09-09T04:54:06;149685.25;;;14.19;100.00
37486;BME280;23341;50.296;18.960;2022-09-09T04:59:14;149726.59;;;14.36;100.00
37486;BME280;23341;50.296;18.960;2022-09-09T05:04:24;149720.09;;;14.33;100.00
37486;BME280;23341;50.296;18.960;2022-09-09T05:09:29;149734.31;;;14.39;100.00
37486;BME280;23341;50.296;18.960;2022-09-09T05:14:34;149756.31;;;14.47;100.00
37486;BME280;23341;50.296;18.960;2022-09-09T05:19:44;149779.59;;;14.57;100.00
37486;BME280;23341;50.296;18.960;2022-09-09T05:24:49;149798.94;;;14.64;100.00
37486;BME280;23341;50.296;18.960;2022-09-09T05:29:55;149817.06;;;14.71;100.00
37486;BME280;23341;50.296;18.960;2022-09-09T05:35:02;149837.72;;;14.80;100.00
37486;BME280;23341;50.296;18.960;2022-09-09T05:40:08;149884.22;;;14.98;100.00
37486;BME280;23341;50.296;18.960;2022-09-09T05:45:15;149895.88;;;15.02;100.00
37486;BME280;23341;50.296;18.960;2022-09-09T05:50:21;149912.69;;;15.09;100.00
37486;BME280;23341;50.296;18.960;2022-09-09T05:55:32;149937.22;;;15.19;100.00
37486;BME280;23341;50.296;18.960;2022-09-09T06:00:38;149964.41;;;15.30;100.00
37486;BME280;23341;50.296;18.960;2022-09-09T06:05:45;149947.56;;;15.23;100.00
37486;BME280;23341;50.296;18.960;2022-09-09T06:10:49;150010.94;;;15.48;100.00
37486;BME280;23341;50.296;18.960;2022-09-09T06:15:55;150057.50;;;15.66;100.00
37486;BME280;23341;50.296;18.960;2022-09-09T06:21:06;150111.81;;;15.88;100.00
37486;BME280;23341;50.296;18.960;2022-09-09T06:26:14;150119.59;;;15.91;100.00
37486;BME280;23341;50.296;18.960;2022-09-09T06:31:22;150149.34;;;16.02;100.00
37486;BME280;23341;50.296;18.960;2022-09-09T06:36:36;150875.81;;;18.89;100.00
37486;BME280;23341;50.296;18.960;2022-09-09T06:41:42;151998.84;;;23.30;95.29
37486;BME280;23341;50.296;18.960;2022-09-09T06:47:10;152361.81;;;24.72;83.28
37486;BME280;23341;50.296;18.960;2022-09-09T06:52:18;153156.59;;;27.84;66.45
37486;BME280;23341;50.296;18.960;2022-09-09T06:57:23;153318.28;;;28.47;60.46
37486;BME280;23341;50.296;18.960;2022-09-09T07:02:41;153151.34;;;27.82;61.21
37486;BME280;23341;50.296;18.960;2022-09-09T07:07:50;153869.22;;;30.62;48.47
37486;BME280;23341;50.296;18.960;2022-09-09T07:12:56;153856.13;;;30.57;47.37
37486;BME280;23341;50.296;18.960;2022-09-09T07:18:02;153709.84;;;30.00;47.00
37486;BME280;23341;50.296;18.960;2022-09-09T07:23:10;154406.50;;;32.72;40.25
37486;BME280;23341;50.296;18.960;2022-09-09T07:28:15;154593.59;;;33.45;38.87
37486;BME280;23341;50.296;18.960;2022-09-09T07:33:19;155008.53;;;35.07;33.52
37486;BME280;23341;50.296;18.960;2022-09-09T07:38:25;154970.56;;;34.92;33.75
37486;BME280;23341;50.296;18.960;2022-09-09T07:43:31;154713.97;;;33.92;33.62
37486;BME280;23341;50.296;18.960;2022-09-09T07:48:36;155315.09;;;36.26;31.51
37486;BME280;23341;50.296;18.960;2022-09-09T07:53:44;154543.81;;;33.26;35.50
37486;BME280;23341;50.296;18.960;2022-09-09T07:58:50;154369.84;;;32.58;37.44
37486;BME280;23341;50.296;18.960;2022-09-09T08:03:57;153960.69;;;30.98;40.53
37486;BME280;23341;50.296;18.960;2022-09-09T08:09:07;153630.25;;;29.69;42.47
37486;BME280;23341;50.296;18.960;2022-09-09T08:14:14;153452.72;;;29.00;45.97
37486;BME280;23341;50.296;18.960;2022-09-09T08:19:18;153264.75;;;28.26;48.80
37486;BME280;23341;50.296;18.960;2022-09-09T08:24:25;152942.69;;;27.00;52.89
37486;BME280;23341;50.296;18.960;2022-09-09T08:29:30;152709.47;;;26.09;55.14
37486;BME280;23341;50.296;18.960;2022-09-09T08:34:34;152985.75;;;27.17;53.91
37486;BME280;23341;50.296;18.960;2022-09-09T08:39:49;152889.28;;;26.79;53.93
37486;BME280;23341;50.296;18.960;2022-09-09T08:45:14;152452.94;;;25.08;59.13
37486;BME280;23341;50.296;18.960;2022-09-09T08:50:28;151987.16;;;23.26;68.37
37486;BME280;23341;50.296;18.960;2022-09-09T08:55:47;152085.97;;;23.64;68.81
37486;BME280;23341;50.296;18.960;2022-09-09T09:01:09;152161.44;;;23.94;66.24
37486;BME280;23341;50.296;18.960;2022-09-09T09:06:39;152019.66;;;23.38;68.30
37486;BME280;23341;50.296;18.960;2022-09-09T09:11:49;151971.53;;;23.19;69.47
37486;BME280;23341;50.296;18.960;2022-09-09T09:16:58;151677.78;;;22.04;75.87
37486;BME280;23341;50.296;18.960;2022-09-09T09:22:09;151666.09;;;21.99;74.13
37486;BME280;23341;50.296;18.960;2022-09-09T09:27:25;151768.78;;;22.40;70.64
37486;BME280;23341;50.296;18.960;2022-09-09T09:32:36;151926.03;;;23.02;67.93
37486;BME280;23341;50.296;18.960;2022-09-09T09:37:44;151985.81;;;23.25;67.40
37486;BME280;23341;50.296;18.960;2022-09-09T09:43:20;152104.19;;;23.71;63.71
37486;BME280;23341;50.296;18.960;2022-09-09T09:48:27;152076.84;;;23.61;61.90
37486;BME280;23341;50.296;18.960;2022-09-09T09:53:36;152070.34;;;23.58;59.95
37486;BME280;23341;50.296;18.960;2022-09-09T09:58:51;152074.25;;;23.60;60.43
37486;BME280;23341;50.296;18.960;2022-09-09T10:04:15;152161.44;;;23.94;64.00
37486;BME280;23341;50.296;18.960;2022-09-09T10:09:24;152169.22;;;23.97;62.68
37486;BME280;23341;50.296;18.960;2022-09-09T10:14:38;152203.03;;;24.10;62.60
37486;BME280;23341;50.296;18.960;2022-09-09T10:19:57;152350.09;;;24.68;59.40
37486;BME280;23341;50.296;18.960;2022-09-09T10:25:22;152279.81;;;24.40;58.55
37486;BME280;23341;50.296;18.960;2022-09-09T10:30:41;152238.19;;;24.24;58.83
37486;BME280;23341;50.296;18.960;2022-09-09T10:35:58;152270.69;;;24.37;59.64
37486;BME280;23341;50.296;18.960;2022-09-09T10:41:19;152223.84;;;24.18;59.16
37486;BME280;23341;50.296;18.960;2022-09-09T10:46:37;152203.03;;;24.10;58.85
37486;BME280;23341;50.296;18.960;2022-09-09T10:51:48;152105.47;;;23.72;59.00
37486;BME280;23341;50.296;18.960;2022-09-09T10:57:00;152390.41;;;24.84;56.88
37486;BME280;23341;50.296;18.960;2022-09-09T11:02:14;152403.47;;;24.89;56.68
37486;BME280;23341;50.296;18.960;2022-09-09T11:07:28;152546.66;;;25.45;51.47
37486;BME280;23341;50.296;18.960;2022-09-09T11:12:37;152106.81;;;23.72;58.87
37486;BME280;23341;50.296;18.960;2022-09-09T11:17:47;152088.59;;;23.65;59.39
37486;BME280;23341;50.296;18.960;2022-09-09T11:22:57;152212.13;;;24.14;54.26
37486;BME280;23341;50.296;18.960;2022-09-09T11:33:56;152684.69;;;25.99;51.40
37486;BME280;23341;50.296;18.960;2022-09-09T11:39:22;152843.69;;;26.61;47.59
37486;BME280;23341;50.296;18.960;2022-09-09T11:44:31;152581.81;;;25.59;47.67
37486;BME280;23341;50.296;18.960;2022-09-09T11:49:42;152792.81;;;26.41;45.58
37486;BME280;23341;50.296;18.960;2022-09-09T11:54:49;152872.38;;;26.73;42.62
37486;BME280;23341;50.296;18.960;2022-09-09T11:59:54;152830.66;;;26.56;42.72
37486;BME280;23341;50.296;18.960;2022-09-09T12:05:06;152863.22;;;26.69;43.68
37486;BME280;23341;50.296;18.960;2022-09-09T12:10:22;152735.50;;;26.19;43.99
37486;BME280;23341;50.296;18.960;2022-09-09T12:15:29;152550.56;;;25.46;46.54
37486;BME280;23341;50.296;18.960;2022-09-09T12:20:37;152598.75;;;25.65;48.32
37486;BME280;23341;50.296;18.960;2022-09-09T12:25:52;152670.38;;;25.93;44.97
37486;BME280;23341;50.296;18.960;2022-09-09T12:31:05;152562.28;;;25.51;45.84
37486;BME280;23341;50.296;18.960;2022-09-09T12:36:16;152783.69;;;26.38;45.13
37486;BME280;23341;50.296;18.960;2022-09-09T12:41:24;153049.63;;;27.42;43.44
37486;BME280;23341;50.296;18.960;2022-09-09T12:46:33;152881.44;;;26.76;44.60
37486;BME280;23341;50.296;18.960;2022-09-09T12:51:43;152940.09;;;26.99;43.24
37486;BME280;23341;50.296;18.960;2022-09-09T12:56:48;152799.41;;;26.44;43.23
37486;BME280;23341;50.296;18.960;2022-09-09T13:01:58;152626.06;;;25.76;45.19
37486;BME280;23341;50.296;18.960;2022-09-09T13:07:07;152272.03;;;24.37;49.78
37486;BME280;23341;50.296;18.960;2022-09-09T13:12:15;152429.47;;;24.99;48.70
37486;BME280;23341;50.296;18.960;2022-09-09T13:17:22;152596.13;;;25.64;47.37
37486;BME280;23341;50.296;18.960;2022-09-09T13:22:33;152587.00;;;25.61;45.72
37486;BME280;23341;50.296;18.960;2022-09-09T13:27:40;152482.88;;;25.20;46.57
37486;BME280;23341;50.296;18.960;2022-09-09T13:32:45;152420.34;;;24.95;46.98
37486;BME280;23341;50.296;18.960;2022-09-09T13:37:52;152382.63;;;24.81;46.82
37486;BME280;23341;50.296;18.960;2022-09-09T13:42:57;152343.56;;;24.65;45.90
37486;BME280;23341;50.296;18.960;2022-09-09T13:48:09;152382.63;;;24.81;46.00
37486;BME280;23341;50.296;18.960;2022-09-09T13:53:16;152326.69;;;24.59;47.06
37486;BME280;23341;50.296;18.960;2022-09-09T13:58:22;152229.06;;;24.20;48.85
37486;BME280;23341;50.296;18.960;2022-09-09T14:03:28;152370.91;;;24.76;48.85
37486;BME280;23341;50.296;18.960;2022-09-09T14:08:34;152346.16;;;24.66;49.81
37486;BME280;23341;50.296;18.960;2022-09-09T14:13:40;152144.50;;;23.87;48.72
37486;BME280;23341;50.296;18.960;2022-09-09T14:18:45;152251.19;;;24.29;48.88
37486;BME280;23341;50.296;18.960;2022-09-09T14:23:51;152312.34;;;24.53;46.14
37486;BME280;23341;50.296;18.960;2022-09-09T14:28:58;152296.75;;;24.47;46.92
37486;BME280;23341;50.296;18.960;2022-09-09T14:34:03;152316.28;;;24.55;46.92
37486;BME280;23341;50.296;18.960;2022-09-09T14:39:11;152381.34;;;24.80;46.00
37486;BME280;23341;50.296;18.960;2022-09-09T14:44:15;152606.53;;;25.68;45.58
37486;BME280;23341;50.296;18.960;2022-09-09T14:49:20;152585.69;;;25.60;44.58
37486;BME280;23341;50.296;18.960;2022-09-09T14:54:26;152416.47;;;24.94;45.39
37486;BME280;23341;50.296;18.960;2022-09-09T14:59:30;152298.03;;;24.47;48.48
37486;BME280;23341;50.296;18.960;2022-09-09T15:04:35;152208.25;;;24.12;47.18
37486;BME280;23341;50.296;18.960;2022-09-09T15:09:42;152184.84;;;24.03;47.88
37486;BME280;23341;50.296;18.960;2022-09-09T15:14:47;152170.50;;;23.97;48.20
37486;BME280;23341;50.296;18.960;2022-09-09T15:19:53;152170.50;;;23.97;51.20
37486;BME280;23341;50.296;18.960;2022-09-09T15:24:59;152063.88;;;23.56;49.52
37486;BME280;23341;50.296;18.960;2022-09-09T15:30:06;151987.16;;;23.26;52.26
37486;BME280;23341;50.296;18.960;2022-09-09T15:35:10;151841.50;;;22.68;50.89
37486;BME280;23341;50.296;18.960;2022-09-09T15:40:16;151780.47;;;22.44;53.15
37486;BME280;23341;50.296;18.960;2022-09-09T15:45:21;151802.56;;;22.53;53.35
37486;BME280;23341;50.296;18.960;2022-09-09T15:50:25;151715.53;;;22.19;54.53
37486;BME280;23341;50.296;18.960;2022-09-09T15:55:32;151669.97;;;22.01;53.86
37486;BME280;23341;50.296;18.960;2022-09-09T16:00:37;151669.97;;;22.01;58.54
37486;BME280;23341;50.296;18.960;2022-09-09T16:05:42;151594.69;;;21.71;56.63
37486;BME280;23341;50.296;18.960;2022-09-09T16:10:49;151563.50;;;21.59;61.13
37486;BME280;23341;50.296;18.960;2022-09-09T16:15:54;151519.38;;;21.42;62.91
37486;BME280;23341;50.296;18.960;2022-09-09T16:20:58;151498.59;;;21.34;64.24
37486;BME280;23341;50.296;18.960;2022-09-09T16:26:05;151444.03;;;21.12;67.68
37486;BME280;23341;50.296;18.960;2022-09-09T16:31:13;151415.44;;;21.01;65.65
37486;BME280;23341;50.296;18.960;2022-09-09T16:36:20;151394.69;;;20.93;70.71
37486;BME280;23341;50.296;18.960;2022-09-09T16:41:28;151335.00;;;20.69;72.11
37486;BME280;23341;50.296;18.960;2022-09-09T16:46:35;151271.38;;;20.44;76.16
37486;BME280;23341;50.296;18.960;2022-09-09T16:51:42;151225.97;;;20.26;77.35
37486;BME280;23341;50.296;18.960;2022-09-09T16:56:50;151200.00;;;20.16;78.72
37486;BME280;23341;50.296;18.960;2022-09-09T17:01:55;151113.09;;;19.82;79.99
37486;BME280;23341;50.296;18.960;2022-09-09T17:06:59;151062.53;;;19.62;82.52
37486;BME280;23341;50.296;18.960;2022-09-09T17:12:07;151036.53;;;19.52;83.39
37486;BME280;23341;50.296;18.960;2022-09-09T17:17:12;150976.91;;;19.29;82.59
37486;BME280;23341;50.296;18.960;2022-09-09T17:22:33;150974.34;;;19.27;84.45
37486;BME280;23341;50.296;18.960;2022-09-09T17:27:39;150893.94;;;18.96;86.74
37486;BME280;23341;50.296;18.960;2022-09-09T17:32:43;150817.44;;;18.66;89.51
37486;BME280;23341;50.296;18.960;2022-09-09T17:37:49;150812.25;;;18.64;90.10
37486;BME280;23341;50.296;18.960;2022-09-09T17:42:57;150782.44;;;18.52;90.40
37486;BME280;23341;50.296;18.960;2022-09-09T17:48:04;150748.78;;;18.39;91.55
37486;BME280;23341;50.296;18.960;2022-09-09T17:53:09;150755.22;;;18.41;90.24
37486;BME280;23341;50.296;18.960;2022-09-09T17:58:15;150759.13;;;18.43;90.44
37486;BME280;23341;50.296;18.960;2022-09-09T18:03:19;150694.38;;;18.17;93.54
37486;BME280;23341;50.296;18.960;2022-09-09T18:08:24;150664.56;;;18.06;96.62
37486;BME280;23341;50.296;18.960;2022-09-09T18:13:31;150702.16;;;18.20;95.04
37486;BME280;23341;50.296;18.960;2022-09-09T18:18:36;150651.63;;;18.00;98.49
37486;BME280;23341;50.296;18.960;2022-09-09T18:23:41;150637.38;;;17.95;99.15
37486;BME280;23341;50.296;18.960;2022-09-09T18:28:52;150619.22;;;17.88;100.00
37486;BME280;23341;50.296;18.960;2022-09-09T18:33:59;150660.69;;;18.04;100.00
37486;BME280;23341;50.296;18.960;2022-09-09T18:46:18;150582.94;;;17.73;100.00
37486;BME280;23341;50.296;18.960;2022-09-09T18:51:26;150627.00;;;17.91;100.00
37486;BME280;23341;50.296;18.960;2022-09-09T18:56:31;150645.13;;;17.98;100.00
37486;BME280;23341;50.296;18.960;2022-09-09T19:01:39;150669.75;;;18.08;100.00
37486;BME280;23341;50.296;18.960;2022-09-09T19:06:45;150700.81;;;18.20;100.00
37486;BME280;23341;50.296;18.960;2022-09-09T19:11:50;150678.78;;;18.11;100.00
37486;BME280;23341;50.296;18.960;2022-09-09T19:16:56;150704.72;;;18.21;100.00
37486;BME280;23341;50.296;18.960;2022-09-09T19:22:02;150665.84;;;18.06;100.00
37486;BME280;23341;50.296;18.960;2022-09-09T19:27:10;150655.47;;;18.02;100.00
37486;BME280;23341;50.296;18.960;2022-09-09T19:32:16;150636.09;;;17.94;100.00
37486;BME280;23341;50.296;18.960;2022-09-09T19:37:42;150621.81;;;17.89;100.00
37486;BME280;23341;50.296;18.960;2022-09-09T19:42:46;150663.25;;;18.05;100.00
37486;BME280;23341;50.296;18.960;2022-09-09T19:47:53;150634.75;;;17.94;100.00
37486;BME280;23341;50.296;18.960;2022-09-09T19:52:58;150617.94;;;17.87;100.00
37486;BME280;23341;50.296;18.960;2022-09-09T19:58:02;150637.38;;;17.95;100.00
37486;BME280;23341;50.296;18.960;2022-09-09T20:03:09;150655.47;;;18.02;100.00
37486;BME280;23341;50.296;18.960;2022-09-09T20:08:22;150634.75;;;17.94;100.00
37486;BME280;23341;50.296;18.960;2022-09-09T20:13:28;150620.53;;;17.88;100.00
37486;BME280;23341;50.296;18.960;2022-09-09T20:18:36;150606.28;;;17.83;100.00
37486;BME280;23341;50.296;18.960;2022-09-09T20:23:42;150590.72;;;17.76;100.00
37486;BME280;23341;50.296;18.960;2022-09-09T20:28:48;150562.22;;;17.65;100.00
37486;BME280;23341;50.296;18.960;2022-09-09T20:33:56;150540.22;;;17.57;100.00
37486;BME280;23341;50.296;18.960;2022-09-09T20:39:03;150533.72;;;17.54;100.00
37486;BME280;23341;50.296;18.960;2022-09-09T20:44:10;150479.34;;;17.33;100.00
37486;BME280;23341;50.296;18.960;2022-09-09T20:49:20;150500.06;;;17.41;100.00
37486;BME280;23341;50.296;18.960;2022-09-09T20:54:27;150507.84;;;17.44;100.00
37486;BME280;23341;50.296;18.960;2022-09-09T20:59:33;150520.78;;;17.49;100.00
37486;BME280;23341;50.296;18.960;2022-09-09T21:04:39;150514.28;;;17.46;100.00
37486;BME280;23341;50.296;18.960;2022-09-09T21:09:44;150497.47;;;17.40;100.00
37486;BME280;23341;50.296;18.960;2022-09-09T21:14:48;150528.56;;;17.52;100.00
37486;BME280;23341;50.296;18.960;2022-09-09T21:19:55;150525.94;;;17.51;100.00
37486;BME280;23341;50.296;18.960;2022-09-09T21:24:59;150532.41;;;17.53;100.00
37486;BME280;23341;50.296;18.960;2022-09-09T21:30:04;150513.00;;;17.46;100.00
37486;BME280;23341;50.296;18.960;2022-09-09T21:35:10;150524.63;;;17.50;100.00
37486;BME280;23341;50.296;18.960;2022-09-09T21:40:15;150511.69;;;17.45;100.00
37486;BME280;23341;50.296;18.960;2022-09-09T21:45:20;150494.91;;;17.39;100.00
37486;BME280;23341;50.296;18.960;2022-09-09T21:50:26;150468.97;;;17.28;100.00
37486;BME280;23341;50.296;18.960;2022-09-09T21:55:32;150466.41;;;17.27;100.00
37486;BME280;23341;50.296;18.960;2022-09-09T22:00:39;150450.84;;;17.21;100.00
37486;BME280;23341;50.296;18.960;2022-09-09T22:05:46;150465.09;;;17.27;100.00
37486;BME280;23341;50.296;18.960;2022-09-09T22:10:55;150463.81;;;17.26;100.00
37486;BME280;23341;50.296;18.960;2022-09-09T22:16:01;150459.91;;;17.25;100.00
37486;BME280;23341;50.296;18.960;2022-09-09T22:21:09;150424.97;;;17.11;100.00
37486;BME280;23341;50.296;18.960;2022-09-09T22:26:14;150419.81;;;17.09;100.00
37486;BME280;23341;50.296;18.960;2022-09-09T22:31:19;150374.47;;;16.91;100.00
37486;BME280;23341;50.296;18.960;2022-09-09T22:36:26;150380.97;;;16.94;100.00
37486;BME280;23341;50.296;18.960;2022-09-09T22:41:31;150368.03;;;16.89;100.00
37486;BME280;23341;50.296;18.960;2022-09-09T22:46:35;150352.47;;;16.83;100.00
37486;BME280;23341;50.296;18.960;2022-09-09T22:51:42;150346.03;;;16.80;100.00
37486;BME280;23341;50.296;18.960;2022-09-09T22:56:47;150348.59;;;16.81;100.00
37486;BME280;23341;50.296;18.960;2022-09-09T23:01:52;150374.47;;;16.91;100.00
37486;BME280;23341;50.296;18.960;2022-09-09T23:06:58;150370.59;;;16.90;100.00
37486;BME280;23341;50.296;18.960;2022-09-09T23:12:03;150402.97;;;17.02;100.00
37486;BME280;23341;50.296;18.960;2022-09-09T23:17:10;150375.81;;;16.92;100.00
37486;BME280;23341;50.296;18.960;2022-09-09T23:22:23;150379.69;;;16.93;100.00
37486;BME280;23341;50.296;18.960;2022-09-09T23:27:28;150393.91;;;16.99;100.00
37486;BME280;23341;50.296;18.960;2022-09-09T23:32:34;150357.69;;;16.85;100.00
37486;BME280;23341;50.296;18.960;2022-09-09T23:37:40;150206.25;;;16.25;100.00
37486;BME280;23341;50.296;18.960;2022-09-09T23:42:44;150202.38;;;16.23;100.00
37486;BME280;23341;50.296;18.960;2022-09-09T23:47:50;150198.47;;;16.22;100.00
37486;BME280;23341;50.296;18.960;2022-09-09T23:52:59;150259.28;;;16.46;100.00
37486;BME280;23341;50.296;18.960;2022-09-09T23:58:05;150261.88;;;16.47;100.00
